Portada
METAR-TAF:

METAR-TAF

Aeroports :

Tarakan, Indonèsia

latitud: 03-19-36N, longitud: 117-33-56E, altitud: 6 m

METAR: manca

Hora: 21:39 (14:39 UTC)

Pronòstic

L'informe es va fer fa 15 hores i 39 minuts, a les 23:00 UTC
Pronòstic vàlid del 25 a les 00 UTC al 25 a les 12 UTC
Vent 3 kt del Nord/Nord-Oest
Visibilitat: 6000 m
Escasses núvols a una alçada de 1500 ft, Cumulonimbus.
Núvols disperses a una alçada de 1500 ft
pluja
Evolucionant progressivament
l' 25 a les 00 UTC al 25 a les 02 UTC
Visibilitat 10 km o més
Núvols disperses a una alçada de 1500 ft

TAF: WAQQ 242300Z 2500/2512 33003KT 6000 -RA FEW015CB SCT015 BECMG 2500/2502 9999 NSW SCT015

Observacions i pronòstics meteorològics de més de 4000 aeroports (METAR i TAF).

Les estacions disponibles són els punts grocs i vermells al mapa.

Posi el ratolí al punt desitjat per veure el nom de l'estació.

Feu clic per veure les observacions i els pronòstics meteorològics.

Per canviar el mapa: feu clic els botons verds amb una creu de color negre per apropar; al botó verd amb un guió per allunyar la imatge; o en les fletxes verdes per a mapes adjacents.


METAR-TAF: